Weather History for Idaho Cnty AP, Grangeville, I, ID

Change the Weather History Date:

Friday, January 10, 2014

  Actual Average (KLWS) Record (KLWS)
Temperature  
Mean Temperature 40 °F 35 °F  
Max Temperature 43 °F 41 °F 60 °F (1983)
Min Temperature 38 °F 29 °F -5 °F (1949)
Degree Days  
Heating Degree Days 24 30  
Month to date heating degree days 307  
Since 1 July heating degree days 2515  
Cooling Degree Days 0 0  
Month to date cooling degree days 0  
Year to date cooling degree days 0  
Moisture  
Dew Point 29 °F    
Average Humidity 64    
Maximum Humidity 79    
Minimum Humidity 53    
Precipitation  
Precipitation 0.00 in 0.04 in 0.49 in (1988)
Month to date precipitation 0.36  
Year to date precipitation 0.36  
Snow  
Snow 0.00 in 0.00 in 4.30 in (1965)
Month to date snowfall 0.9  
Since 1 July snowfall 6.2  
Snow Depth -    
Sea Level Pressure  
Sea Level Pressure 29.94 in    
Wind  
Wind Speed 20 mph (SW)    
Max Wind Speed 29 mph    
Max Gust Speed 36 mph    
Visibility 10 miles    
Events      
T = Trace of Precipitation, MM = Missing Value Source: NWS Daily Summary

Daily Weather History Graph

Daily Weather History Graph

Search for Another Location

Airport:

Trip Planner

Search our weather history database for the weather conditions in past years. The results will help you decide how hot, cold, wet, or windy it might be!

Date:

Astronomy

Jan. 10, 2014 Rise Set
Actual Time 7:24 AM PST 4:19 PM PST
Civil Twilight 6:50 AM PST 4:53 PM PST
Nautical Twilight 6:13 AM PST 5:31 PM PST
Astronomical Twilight 5:37 AM PST 6:07 PM PST
Moon 12:30 PM PST (1/10) 2:31 AM PST (1/10)
Length of Visible Light 10h 02m
Length of Day
8h 55m
Waxing Gibbous, 76% of the Moon is Illuminated
Jan 10
Waxing Gibbous
Jan 15
Full
Jan 23
Last Quarter
Jan 30
New
Feb 6
First Quarter

Hourly Weather History & Observations

Time (PST) Temp. Windchill Dew Point Humidity Pressure Visibility Wind Dir Wind Speed Gust Speed Precip Events Conditions
12:15 AM 38.7 °F 26.9 °F 27.0 °F 63% 29.77 in 10.0 mi SW 28.8 mph 35.7 mph N/A   Overcast
12:35 AM 38.7 °F 27.5 °F 27.3 °F 64% 29.77 in 10.0 mi SW 25.3 mph 35.7 mph N/A   Overcast
12:55 AM 38.5 °F 27.8 °F 27.7 °F 65% 29.78 in 10.0 mi SW 23.0 mph 32.2 mph N/A   Overcast
1:15 AM 38.5 °F 28.3 °F 27.7 °F 65% 29.78 in 10.0 mi SW 20.7 mph 26.5 mph N/A   Overcast
1:35 AM 38.5 °F 28.9 °F 27.5 °F 65% 29.80 in 10.0 mi WSW 18.4 mph 25.3 mph N/A   Overcast
1:55 AM 38.5 °F 28.6 °F 27.7 °F 65% 29.80 in 10.0 mi SW 19.6 mph 24.2 mph N/A   Overcast
2:15 AM 39.2 °F 29.8 °F 28.8 °F 66% 29.82 in 10.0 mi SW 18.4 mph - N/A   Overcast
2:35 AM 39.4 °F 30.7 °F 29.1 °F 67% 29.83 in 10.0 mi WSW 16.1 mph - N/A   Overcast
2:55 AM 39.7 °F 30.9 °F 29.3 °F 66% 29.82 in 10.0 mi WSW 17.3 mph 26.5 mph N/A   Mostly Cloudy
3:15 AM 40.1 °F 31.0 °F 29.3 °F 65% 29.83 in 10.0 mi WSW 18.4 mph 21.9 mph N/A   Mostly Cloudy
3:35 AM 40.3 °F 31.0 °F 29.1 °F 64% 29.84 in 10.0 mi WSW 19.6 mph 31.1 mph N/A   Overcast
3:55 AM 40.3 °F 31.6 °F 29.1 °F 64% 29.84 in 10.0 mi WSW 17.3 mph 26.5 mph N/A   Overcast
4:15 AM 39.9 °F 30.2 °F 28.9 °F 65% 29.85 in 10.0 mi West 20.7 mph 26.5 mph N/A   Overcast
4:35 AM 40.6 °F 32.3 °F 28.9 °F 63% 29.86 in 10.0 mi WSW 16.1 mph 29.9 mph N/A   Overcast
4:55 AM 40.5 °F 31.5 °F 28.8 °F 63% 29.86 in 10.0 mi WSW 18.4 mph 28.8 mph N/A   Overcast
5:15 AM 40.3 °F 31.3 °F 28.6 °F 63% 29.87 in 10.0 mi WSW 18.4 mph - N/A   Mostly Cloudy
5:35 AM 40.3 °F 31.3 °F 28.4 °F 63% 29.87 in 10.0 mi WSW 18.4 mph - N/A   Mostly Cloudy
5:55 AM 40.3 °F 32.2 °F 28.0 °F 62% 29.88 in 10.0 mi WSW 15.0 mph 21.9 mph N/A   Overcast
6:15 AM 40.1 °F 31.6 °F 28.2 °F 63% 29.87 in 10.0 mi WSW 16.1 mph - N/A   Mostly Cloudy
6:35 AM 39.7 °F 30.9 °F 28.2 °F 63% 29.88 in 10.0 mi SW 17.3 mph 24.2 mph N/A   Scattered Clouds
6:55 AM 39.9 °F 31.1 °F 28.4 °F 63% 29.89 in 10.0 mi SW 17.3 mph 21.9 mph N/A   Mostly Cloudy
7:15 AM 40.1 °F 31.6 °F 28.4 °F 63% 29.91 in 10.0 mi WSW 16.1 mph 23.0 mph N/A   Overcast
7:35 AM 40.3 °F 31.6 °F 28.2 °F 62% 29.91 in 10.0 mi SW 17.3 mph - N/A   Overcast
7:55 AM 40.1 °F 31.3 °F 28.2 °F 63% 29.92 in 10.0 mi WSW 17.3 mph - N/A   Overcast
8:15 AM 40.1 °F 31.3 °F 28.4 °F 63% 29.93 in 10.0 mi WSW 17.3 mph - N/A   Mostly Cloudy
8:35 AM 40.5 °F 32.1 °F 28.6 °F 63% 29.94 in 10.0 mi SW 16.1 mph - N/A   Mostly Cloudy
9:00 AM 40.8 °F 32.3 °F 28.2 °F 61% 29.96 in 10.0 mi SW 17.3 mph - N/A   Mostly Cloudy
9:15 AM 41.0 °F 32.2 °F 28.6 °F 61% 29.96 in 10.0 mi SW 18.4 mph - N/A   Overcast
9:35 AM 41.4 °F 33.0 °F 28.8 °F 61% 29.97 in 10.0 mi SW 17.3 mph 25.3 mph N/A   Overcast
9:55 AM 41.5 °F 32.6 °F 28.9 °F 61% 29.97 in 10.0 mi WSW 19.6 mph 27.6 mph N/A   Mostly Cloudy
10:15 AM 41.9 °F 34.0 °F 29.1 °F 61% 29.98 in 10.0 mi WSW 16.1 mph 21.9 mph N/A   Scattered Clouds
10:35 AM 42.4 °F 34.4 °F 29.1 °F 59% 29.98 in 10.0 mi WSW 17.3 mph 25.3 mph N/A   Mostly Cloudy
10:55 AM 43.0 °F 34.2 °F 28.9 °F 58% 29.98 in 10.0 mi WSW 20.7 mph 25.3 mph N/A   Mostly Cloudy
11:15 AM 43.0 °F 34.5 °F 28.6 °F 57% 29.98 in 10.0 mi WSW 19.6 mph 26.5 mph N/A   Scattered Clouds
11:35 AM 42.8 °F 34.3 °F 28.2 °F 56% 29.98 in 10.0 mi WSW 19.6 mph 26.5 mph N/A   Scattered Clouds
11:55 AM 43.0 °F 35.7 °F 27.7 °F 55% 29.98 in 10.0 mi WSW 15.0 mph 25.3 mph N/A   Scattered Clouds
12:15 PM 43.3 °F 35.0 °F 27.5 °F 54% 29.98 in 10.0 mi WSW 19.6 mph 26.5 mph N/A   Scattered Clouds
12:35 PM 43.3 °F 34.5 °F 27.1 °F 53% 29.98 in 10.0 mi WSW 21.9 mph 26.5 mph N/A   Mostly Cloudy
12:55 PM 42.8 °F 34.5 °F 27.5 °F 55% 29.98 in 10.0 mi WSW 18.4 mph 24.2 mph N/A   Overcast
1:15 PM 42.8 °F 34.3 °F 27.5 °F 55% 29.98 in 10.0 mi WSW 19.6 mph 24.2 mph N/A   Overcast
1:35 PM 42.4 °F 34.1 °F 27.5 °F 56% 29.99 in 10.0 mi WSW 18.4 mph - N/A   Overcast
1:55 PM 42.8 °F 33.8 °F 27.7 °F 55% 29.99 in 10.0 mi WSW 21.9 mph - N/A   Overcast
2:15 PM 42.8 °F 33.5 °F 27.5 °F 55% 29.99 in 10.0 mi WSW 23.0 mph 32.2 mph N/A   Overcast
2:35 PM 42.4 °F 34.7 °F 27.3 °F 55% 30.00 in 10.0 mi WSW 16.1 mph 27.6 mph N/A   Overcast
2:55 PM 42.1 °F 34.2 °F 27.3 °F 56% 30.00 in 10.0 mi SW 16.1 mph 23.0 mph N/A   Overcast
3:15 PM 41.5 °F 33.8 °F 27.3 °F 57% 30.00 in 10.0 mi SW 15.0 mph 23.0 mph N/A   Overcast
3:35 PM 41.2 °F 33.0 °F 27.9 °F 59% 30.02 in 10.0 mi WSW 16.1 mph 24.2 mph N/A   Overcast
3:55 PM 40.8 °F 31.7 °F 28.0 °F 60% 30.01 in 10.0 mi SW 19.6 mph 24.2 mph N/A   Overcast
4:15 PM 40.1 °F 31.3 °F 28.4 °F 63% 30.01 in 10.0 mi SW 17.3 mph 28.8 mph N/A   Overcast
4:35 PM 39.7 °F 29.7 °F 28.9 °F 65% 30.00 in 10.0 mi SW 21.9 mph 28.8 mph N/A   Overcast
4:55 PM 39.0 °F 29.3 °F 30.0 °F 70% 30.02 in 10.0 mi SW 19.6 mph - N/A   Overcast
5:15 PM 38.5 °F 28.1 °F 30.6 °F 73% 30.02 in 10.0 mi SW 21.9 mph 25.3 mph N/A   Overcast
5:35 PM 38.8 °F 29.4 °F 30.4 °F 72% 30.01 in 10.0 mi SW 18.4 mph - N/A   Overcast
5:55 PM 39.4 °F 30.7 °F 30.2 °F 70% 30.01 in 10.0 mi SW 16.1 mph 24.2 mph N/A   Overcast
6:15 PM 39.2 °F 30.5 °F 30.0 °F 70% 30.01 in 10.0 mi SW 16.1 mph 21.9 mph N/A   Overcast
6:35 PM 39.4 °F 30.4 °F 29.8 °F 69% 30.01 in 10.0 mi SSW 17.3 mph 26.5 mph N/A   Overcast
6:55 PM 39.7 °F 29.7 °F 29.7 °F 67% 30.01 in 10.0 mi SW 21.9 mph 29.9 mph N/A   Overcast
7:15 PM 39.7 °F 30.9 °F 29.8 °F 68% 30.02 in 10.0 mi SW 17.3 mph 28.8 mph N/A   Overcast
7:35 PM 39.4 °F 30.7 °F 30.4 °F 70% 30.01 in 10.0 mi SSW 16.1 mph 25.3 mph N/A   Overcast
7:55 PM 38.7 °F 28.3 °F 31.1 °F 74% 30.01 in 10.0 mi SW 21.9 mph 25.3 mph N/A   Overcast
8:15 PM 38.5 °F 28.9 °F 31.3 °F 75% 30.00 in 10.0 mi SW 18.4 mph 23.0 mph N/A   Overcast
8:35 PM 38.8 °F 31.6 °F 31.5 °F 75% 29.99 in 10.0 mi SSW 11.5 mph 21.9 mph N/A   Overcast
8:55 PM 39.6 °F 31.0 °F 31.1 °F 72% 29.98 in 10.0 mi SSW 16.1 mph 25.3 mph N/A   Overcast
9:15 PM 40.1 °F 30.2 °F 30.9 °F 70% 29.98 in 10.0 mi SSW 21.9 mph 27.6 mph N/A   Overcast
9:35 PM 39.4 °F 29.8 °F 31.6 °F 74% 29.98 in 10.0 mi SW 19.6 mph 26.5 mph N/A   Overcast
9:55 PM 39.2 °F 29.8 °F 31.8 °F 75% 29.98 in 10.0 mi SSW 18.4 mph 28.8 mph N/A   Overcast
10:15 PM 39.4 °F 30.7 °F 32.0 °F 75% 29.97 in 10.0 mi South 16.1 mph 31.1 mph N/A   Overcast
10:35 PM 40.3 °F 30.2 °F 32.0 °F 72% 29.95 in 10.0 mi SSW 23.0 mph 32.2 mph N/A   Overcast
10:55 PM 40.5 °F 30.2 °F 32.0 °F 72% 29.94 in 10.0 mi SSW 24.2 mph 32.2 mph N/A   Overcast
11:15 PM 39.9 °F 32.5 °F 32.5 °F 75% 29.94 in 10.0 mi WSW 12.7 mph 20.7 mph N/A   Overcast
11:35 PM 39.2 °F 30.8 °F 33.1 °F 79% 29.93 in 10.0 mi South 15.0 mph 20.7 mph N/A   Overcast
11:55 PM 40.1 °F 31.6 °F 33.3 °F 77% 29.92 in 10.0 mi SSE 16.1 mph 27.6 mph N/A   Overcast